sensor_id;sensor_type;location;lat;lon;timestamp;P1;durP1;ratioP1;P2;durP2;ratioP2
55732;SDS011;41637;52.364;9.910;2023-04-24T00:01:05;1.70;;;0.50;;
55732;SDS011;41637;52.364;9.910;2023-04-24T00:03:33;2.40;;;0.70;;
55732;SDS011;41637;52.364;9.910;2023-04-24T00:06:01;1.70;;;0.70;;
55732;SDS011;41637;52.364;9.910;2023-04-24T00:08:28;1.60;;;1.00;;
55732;SDS011;41637;52.364;9.910;2023-04-24T00:10:55;1.60;;;0.70;;
55732;SDS011;41637;52.364;9.910;2023-04-24T00:13:21;1.50;;;0.80;;
55732;SDS011;41637;52.364;9.910;2023-04-24T00:15:48;1.50;;;0.60;;
55732;SDS011;41637;52.364;9.910;2023-04-24T00:18:15;2.20;;;0.90;;
55732;SDS011;41637;52.364;9.910;2023-04-24T00:20:41;2.80;;;0.70;;
55732;SDS011;41637;52.364;9.910;2023-04-24T00:23:09;2.50;;;0.80;;
55732;SDS011;41637;52.364;9.910;2023-04-24T00:25:36;1.40;;;0.70;;
55732;SDS011;41637;52.364;9.910;2023-04-24T00:28:03;1.20;;;0.70;;
55732;SDS011;41637;52.364;9.910;2023-04-24T00:30:29;3.40;;;0.90;;
55732;SDS011;41637;52.364;9.910;2023-04-24T00:32:56;1.60;;;0.80;;
55732;SDS011;41637;52.364;9.910;2023-04-24T00:35:23;1.80;;;0.80;;
55732;SDS011;41637;52.364;9.910;2023-04-24T00:37:50;2.30;;;0.90;;
55732;SDS011;41637;52.364;9.910;2023-04-24T00:40:16;1.60;;;0.90;;
55732;SDS011;41637;52.364;9.910;2023-04-24T00:42:43;1.80;;;0.80;;
55732;SDS011;41637;52.364;9.910;2023-04-24T00:45:13;2.10;;;0.90;;
55732;SDS011;41637;52.364;9.910;2023-04-24T00:47:39;1.80;;;1.00;;
55732;SDS011;41637;52.364;9.910;2023-04-24T00:50:08;2.40;;;0.90;;
55732;SDS011;41637;52.364;9.910;2023-04-24T00:52:35;2.40;;;0.90;;
55732;SDS011;41637;52.364;9.910;2023-04-24T00:55:03;1.90;;;0.90;;
55732;SDS011;41637;52.364;9.910;2023-04-24T00:57:30;1.60;;;1.00;;
55732;SDS011;41637;52.364;9.910;2023-04-24T00:59:56;1.70;;;0.90;;
55732;SDS011;41637;52.364;9.910;2023-04-24T01:02:24;2.40;;;1.10;;
55732;SDS011;41637;52.364;9.910;2023-04-24T01:04:51;1.70;;;0.70;;
55732;SDS011;41637;52.364;9.910;2023-04-24T01:07:19;2.00;;;0.90;;
55732;SDS011;41637;52.364;9.910;2023-04-24T01:09:47;2.00;;;1.10;;
55732;SDS011;41637;52.364;9.910;2023-04-24T01:12:17;1.70;;;0.90;;
55732;SDS011;41637;52.364;9.910;2023-04-24T01:14:44;1.80;;;0.90;;
55732;SDS011;41637;52.364;9.910;2023-04-24T01:17:11;2.90;;;0.60;;
55732;SDS011;41637;52.364;9.910;2023-04-24T01:19:38;2.10;;;0.90;;
55732;SDS011;41637;52.364;9.910;2023-04-24T01:22:10;1.50;;;0.70;;
55732;SDS011;41637;52.364;9.910;2023-04-24T01:24:38;1.70;;;0.80;;
55732;SDS011;41637;52.364;9.910;2023-04-24T01:27:05;1.60;;;0.70;;
55732;SDS011;41637;52.364;9.910;2023-04-24T01:29:32;1.70;;;0.80;;
55732;SDS011;41637;52.364;9.910;2023-04-24T01:32:00;1.60;;;0.70;;
55732;SDS011;41637;52.364;9.910;2023-04-24T01:34:27;2.60;;;0.80;;
55732;SDS011;41637;52.364;9.910;2023-04-24T01:36:54;1.90;;;0.80;;
55732;SDS011;41637;52.364;9.910;2023-04-24T01:39:20;1.30;;;0.60;;
55732;SDS011;41637;52.364;9.910;2023-04-24T01:41:49;1.70;;;0.60;;
55732;SDS011;41637;52.364;9.910;2023-04-24T01:44:16;1.30;;;0.60;;
55732;SDS011;41637;52.364;9.910;2023-04-24T01:46:44;1.40;;;0.60;;
55732;SDS011;41637;52.364;9.910;2023-04-24T01:49:11;2.60;;;0.60;;
55732;SDS011;41637;52.364;9.910;2023-04-24T01:51:37;1.40;;;0.70;;
55732;SDS011;41637;52.364;9.910;2023-04-24T01:54:04;0.90;;;0.60;;
55732;SDS011;41637;52.364;9.910;2023-04-24T01:56:33;2.00;;;0.80;;
55732;SDS011;41637;52.364;9.910;2023-04-24T01:59:03;1.30;;;0.70;;
55732;SDS011;41637;52.364;9.910;2023-04-24T02:01:36;2.20;;;0.70;;
55732;SDS011;41637;52.364;9.910;2023-04-24T02:04:04;2.00;;;1.00;;
55732;SDS011;41637;52.364;9.910;2023-04-24T02:06:32;1.50;;;0.70;;
55732;SDS011;41637;52.364;9.910;2023-04-24T02:08:59;1.50;;;0.60;;
55732;SDS011;41637;52.364;9.910;2023-04-24T02:11:25;2.30;;;0.70;;
55732;SDS011;41637;52.364;9.910;2023-04-24T02:13:52;1.10;;;0.70;;
55732;SDS011;41637;52.364;9.910;2023-04-24T02:16:19;1.40;;;0.80;;
55732;SDS011;41637;52.364;9.910;2023-04-24T02:18:46;2.50;;;0.80;;
55732;SDS011;41637;52.364;9.910;2023-04-24T02:21:12;1.70;;;0.70;;
55732;SDS011;41637;52.364;9.910;2023-04-24T02:23:39;2.30;;;0.70;;
55732;SDS011;41637;52.364;9.910;2023-04-24T02:26:06;1.60;;;0.70;;
55732;SDS011;41637;52.364;9.910;2023-04-24T02:28:32;1.50;;;0.80;;
55732;SDS011;41637;52.364;9.910;2023-04-24T02:30:59;1.90;;;0.70;;
55732;SDS011;41637;52.364;9.910;2023-04-24T02:33:26;1.70;;;0.80;;
55732;SDS011;41637;52.364;9.910;2023-04-24T02:35:53;2.20;;;0.80;;
55732;SDS011;41637;52.364;9.910;2023-04-24T02:38:19;1.80;;;0.70;;
55732;SDS011;41637;52.364;9.910;2023-04-24T02:40:46;2.00;;;0.80;;
55732;SDS011;41637;52.364;9.910;2023-04-24T02:43:12;2.20;;;0.90;;
55732;SDS011;41637;52.364;9.910;2023-04-24T02:45:39;1.30;;;0.70;;
55732;SDS011;41637;52.364;9.910;2023-04-24T02:48:06;2.40;;;0.90;;
55732;SDS011;41637;52.364;9.910;2023-04-24T02:50:32;2.00;;;0.80;;
55732;SDS011;41637;52.364;9.910;2023-04-24T02:52:59;2.10;;;1.10;;
55732;SDS011;41637;52.364;9.910;2023-04-24T02:55:26;2.40;;;0.90;;
55732;SDS011;41637;52.364;9.910;2023-04-24T02:57:53;1.50;;;0.80;;
55732;SDS011;41637;52.364;9.910;2023-04-24T03:00:20;3.00;;;0.90;;
55732;SDS011;41637;52.364;9.910;2023-04-24T03:02:46;2.10;;;0.90;;
55732;SDS011;41637;52.364;9.910;2023-04-24T03:05:13;2.10;;;0.90;;
55732;SDS011;41637;52.364;9.910;2023-04-24T03:07:40;1.50;;;0.80;;
55732;SDS011;41637;52.364;9.910;2023-04-24T03:10:07;1.90;;;1.00;;
55732;SDS011;41637;52.364;9.910;2023-04-24T03:12:33;1.80;;;0.90;;
55732;SDS011;41637;52.364;9.910;2023-04-24T03:15:00;1.40;;;0.80;;
55732;SDS011;41637;52.364;9.910;2023-04-24T03:17:27;2.10;;;1.10;;
55732;SDS011;41637;52.364;9.910;2023-04-24T03:19:54;2.00;;;1.00;;
55732;SDS011;41637;52.364;9.910;2023-04-24T03:22:20;1.80;;;0.90;;
55732;SDS011;41637;52.364;9.910;2023-04-24T03:24:47;1.50;;;0.80;;
55732;SDS011;41637;52.364;9.910;2023-04-24T03:27:14;1.30;;;0.70;;
55732;SDS011;41637;52.364;9.910;2023-04-24T03:29:40;2.70;;;0.70;;
55732;SDS011;41637;52.364;9.910;2023-04-24T03:32:07;1.40;;;0.70;;
55732;SDS011;41637;52.364;9.910;2023-04-24T03:34:34;2.20;;;0.80;;
55732;SDS011;41637;52.364;9.910;2023-04-24T03:37:01;2.50;;;0.80;;
55732;SDS011;41637;52.364;9.910;2023-04-24T03:39:27;1.80;;;0.70;;
55732;SDS011;41637;52.364;9.910;2023-04-24T03:41:54;1.50;;;0.70;;
55732;SDS011;41637;52.364;9.910;2023-04-24T03:44:22;1.60;;;0.70;;
55732;SDS011;41637;52.364;9.910;2023-04-24T03:46:48;1.30;;;0.60;;
55732;SDS011;41637;52.364;9.910;2023-04-24T03:49:15;2.80;;;0.80;;
55732;SDS011;41637;52.364;9.910;2023-04-24T03:51:42;1.80;;;0.70;;
55732;SDS011;41637;52.364;9.910;2023-04-24T03:54:08;2.20;;;0.70;;
55732;SDS011;41637;52.364;9.910;2023-04-24T03:56:35;2.00;;;0.70;;
55732;SDS011;41637;52.364;9.910;2023-04-24T03:59:02;1.60;;;0.60;;
55732;SDS011;41637;52.364;9.910;2023-04-24T04:01:28;1.50;;;0.60;;
55732;SDS011;41637;52.364;9.910;2023-04-24T04:03:57;1.20;;;0.70;;
55732;SDS011;41637;52.364;9.910;2023-04-24T04:06:23;1.40;;;0.90;;
55732;SDS011;41637;52.364;9.910;2023-04-24T04:08:50;1.60;;;0.60;;
55732;SDS011;41637;52.364;9.910;2023-04-24T04:11:16;1.40;;;0.70;;
55732;SDS011;41637;52.364;9.910;2023-04-24T04:13:44;1.70;;;0.80;;
55732;SDS011;41637;52.364;9.910;2023-04-24T04:16:11;1.20;;;0.60;;
55732;SDS011;41637;52.364;9.910;2023-04-24T04:18:38;2.50;;;0.60;;
55732;SDS011;41637;52.364;9.910;2023-04-24T04:21:05;1.40;;;0.60;;
55732;SDS011;41637;52.364;9.910;2023-04-24T04:23:32;1.60;;;0.80;;
55732;SDS011;41637;52.364;9.910;2023-04-24T04:25:58;1.50;;;0.60;;
55732;SDS011;41637;52.364;9.910;2023-04-24T04:28:25;1.30;;;0.50;;
55732;SDS011;41637;52.364;9.910;2023-04-24T04:30:52;1.40;;;0.60;;
55732;SDS011;41637;52.364;9.910;2023-04-24T04:33:24;1.50;;;0.70;;
55732;SDS011;41637;52.364;9.910;2023-04-24T04:35:52;1.10;;;0.70;;
55732;SDS011;41637;52.364;9.910;2023-04-24T04:38:19;1.20;;;0.60;;
55732;SDS011;41637;52.364;9.910;2023-04-24T04:40:46;1.20;;;0.50;;
55732;SDS011;41637;52.364;9.910;2023-04-24T04:43:13;1.70;;;0.50;;
55732;SDS011;41637;52.364;9.910;2023-04-24T04:45:42;1.50;;;0.60;;
55732;SDS011;41637;52.364;9.910;2023-04-24T04:48:09;1.40;;;0.60;;
55732;SDS011;41637;52.364;9.910;2023-04-24T04:50:38;1.10;;;0.60;;
55732;SDS011;41637;52.364;9.910;2023-04-24T04:53:05;1.30;;;0.50;;
55732;SDS011;41637;52.364;9.910;2023-04-24T04:55:33;1.50;;;0.60;;
55732;SDS011;41637;52.364;9.910;2023-04-24T04:57:59;1.50;;;0.60;;
55732;SDS011;41637;52.364;9.910;2023-04-24T05:00:27;0.90;;;0.50;;
55732;SDS011;41637;52.364;9.910;2023-04-24T05:02:55;4.20;;;0.70;;
55732;SDS011;41637;52.364;9.910;2023-04-24T05:05:38;3.00;;;1.00;;
55732;SDS011;41637;52.364;9.910;2023-04-24T05:08:07;4.30;;;1.40;;
55732;SDS011;41637;52.364;9.910;2023-04-24T05:10:51;5.40;;;1.50;;
55732;SDS011;41637;52.364;9.910;2023-04-24T05:13:18;6.40;;;1.70;;
55732;SDS011;41637;52.364;9.910;2023-04-24T05:15:57;6.50;;;1.50;;
55732;SDS011;41637;52.364;9.910;2023-04-24T05:18:24;4.30;;;1.40;;
55732;SDS011;41637;52.364;9.910;2023-04-24T05:20:51;3.80;;;1.20;;
55732;SDS011;41637;52.364;9.910;2023-04-24T05:23:17;2.70;;;1.00;;
55732;SDS011;41637;52.364;9.910;2023-04-24T05:25:44;3.30;;;1.10;;
55732;SDS011;41637;52.364;9.910;2023-04-24T05:28:12;2.10;;;0.80;;
55732;SDS011;41637;52.364;9.910;2023-04-24T05:30:39;1.10;;;0.60;;
55732;SDS011;41637;52.364;9.910;2023-04-24T05:33:06;1.90;;;0.80;;
55732;SDS011;41637;52.364;9.910;2023-04-24T05:35:33;1.30;;;0.80;;
55732;SDS011;41637;52.364;9.910;2023-04-24T05:37:59;1.90;;;0.70;;
55732;SDS011;41637;52.364;9.910;2023-04-24T05:40:26;3.20;;;1.00;;
55732;SDS011;41637;52.364;9.910;2023-04-24T05:42:52;2.00;;;0.70;;
55732;SDS011;41637;52.364;9.910;2023-04-24T05:45:19;2.00;;;0.80;;
55732;SDS011;41637;52.364;9.910;2023-04-24T05:47:46;2.50;;;0.80;;
55732;SDS011;41637;52.364;9.910;2023-04-24T05:50:13;5.10;;;3.20;;
55732;SDS011;41637;52.364;9.910;2023-04-24T05:52:40;15.30;;;9.80;;
55732;SDS011;41637;52.364;9.910;2023-04-24T05:55:06;6.00;;;3.00;;
55732;SDS011;41637;52.364;9.910;2023-04-24T05:57:33;7.60;;;3.50;;
55732;SDS011;41637;52.364;9.910;2023-04-24T06:00:00;2.50;;;1.10;;
55732;SDS011;41637;52.364;9.910;2023-04-24T06:02:26;3.00;;;1.60;;
55732;SDS011;41637;52.364;9.910;2023-04-24T06:04:54;3.00;;;2.00;;
55732;SDS011;41637;52.364;9.910;2023-04-24T06:07:21;7.40;;;3.30;;
55732;SDS011;41637;52.364;9.910;2023-04-24T06:09:48;4.10;;;2.20;;
55732;SDS011;41637;52.364;9.910;2023-04-24T06:12:14;3.10;;;1.80;;
55732;SDS011;41637;52.364;9.910;2023-04-24T06:14:41;3.30;;;1.70;;
55732;SDS011;41637;52.364;9.910;2023-04-24T06:17:07;3.50;;;1.20;;
55732;SDS011;41637;52.364;9.910;2023-04-24T06:19:34;9.70;;;5.00;;
55732;SDS011;41637;52.364;9.910;2023-04-24T06:22:00;4.70;;;2.70;;
55732;SDS011;41637;52.364;9.910;2023-04-24T06:24:27;2.00;;;1.20;;
55732;SDS011;41637;52.364;9.910;2023-04-24T06:26:55;15.80;;;11.50;;
55732;SDS011;41637;52.364;9.910;2023-04-24T06:29:23;5.60;;;3.50;;
55732;SDS011;41637;52.364;9.910;2023-04-24T06:31:49;2.50;;;1.10;;
55732;SDS011;41637;52.364;9.910;2023-04-24T06:34:16;4.40;;;2.00;;
55732;SDS011;41637;52.364;9.910;2023-04-24T06:36:42;7.60;;;5.10;;
55732;SDS011;41637;52.364;9.910;2023-04-24T06:39:09;3.80;;;1.60;;
55732;SDS011;41637;52.364;9.910;2023-04-24T06:41:36;1.60;;;0.90;;
55732;SDS011;41637;52.364;9.910;2023-04-24T06:44:02;2.20;;;1.30;;
55732;SDS011;41637;52.364;9.910;2023-04-24T06:46:29;2.30;;;1.30;;
55732;SDS011;41637;52.364;9.910;2023-04-24T06:48:55;3.80;;;1.70;;
55732;SDS011;41637;52.364;9.910;2023-04-24T06:51:23;5.50;;;2.30;;
55732;SDS011;41637;52.364;9.910;2023-04-24T06:53:51;9.80;;;5.50;;
55732;SDS011;41637;52.364;9.910;2023-04-24T06:56:17;4.40;;;2.00;;
55732;SDS011;41637;52.364;9.910;2023-04-24T06:58:44;2.90;;;1.20;;
55732;SDS011;41637;52.364;9.910;2023-04-24T07:01:11;6.10;;;3.50;;
55732;SDS011;41637;52.364;9.910;2023-04-24T07:03:38;2.60;;;1.50;;
55732;SDS011;41637;52.364;9.910;2023-04-24T07:06:05;3.80;;;2.20;;
55732;SDS011;41637;52.364;9.910;2023-04-24T07:08:32;6.10;;;4.30;;
55732;SDS011;41637;52.364;9.910;2023-04-24T07:10:59;2.40;;;1.60;;
55732;SDS011;41637;52.364;9.910;2023-04-24T07:13:26;3.50;;;2.00;;
55732;SDS011;41637;52.364;9.910;2023-04-24T07:15:53;5.50;;;2.10;;
55732;SDS011;41637;52.364;9.910;2023-04-24T07:18:21;4.50;;;1.90;;
55732;SDS011;41637;52.364;9.910;2023-04-24T07:20:48;4.00;;;3.00;;
55732;SDS011;41637;52.364;9.910;2023-04-24T07:23:18;5.00;;;2.90;;
55732;SDS011;41637;52.364;9.910;2023-04-24T07:25:46;5.60;;;3.70;;
55732;SDS011;41637;52.364;9.910;2023-04-24T07:28:13;3.20;;;2.30;;
55732;SDS011;41637;52.364;9.910;2023-04-24T07:30:39;4.30;;;2.90;;
55732;SDS011;41637;52.364;9.910;2023-04-24T07:33:06;4.40;;;3.10;;
55732;SDS011;41637;52.364;9.910;2023-04-24T07:35:33;4.80;;;3.50;;
55732;SDS011;41637;52.364;9.910;2023-04-24T07:38:00;6.20;;;3.70;;
55732;SDS011;41637;52.364;9.910;2023-04-24T07:40:26;3.80;;;2.80;;
55732;SDS011;41637;52.364;9.910;2023-04-24T07:42:53;7.90;;;4.30;;
55732;SDS011;41637;52.364;9.910;2023-04-24T07:45:19;4.10;;;3.20;;
55732;SDS011;41637;52.364;9.910;2023-04-24T07:47:46;5.20;;;3.50;;
55732;SDS011;41637;52.364;9.910;2023-04-24T07:50:13;4.00;;;3.20;;
55732;SDS011;41637;52.364;9.910;2023-04-24T07:52:39;6.00;;;4.40;;
55732;SDS011;41637;52.364;9.910;2023-04-24T07:55:06;3.80;;;3.10;;
55732;SDS011;41637;52.364;9.910;2023-04-24T07:57:33;5.10;;;4.10;;
55732;SDS011;41637;52.364;9.910;2023-04-24T08:00:00;5.30;;;3.90;;
55732;SDS011;41637;52.364;9.910;2023-04-24T08:02:26;5.20;;;3.90;;
55732;SDS011;41637;52.364;9.910;2023-04-24T08:04:53;6.40;;;3.80;;
55732;SDS011;41637;52.364;9.910;2023-04-24T08:07:21;6.20;;;4.00;;
55732;SDS011;41637;52.364;9.910;2023-04-24T08:09:47;4.40;;;3.70;;
55732;SDS011;41637;52.364;9.910;2023-04-24T08:12:14;5.90;;;4.30;;
55732;SDS011;41637;52.364;9.910;2023-04-24T08:14:41;6.40;;;4.20;;
55732;SDS011;41637;52.364;9.910;2023-04-24T08:17:08;5.60;;;4.20;;
55732;SDS011;41637;52.364;9.910;2023-04-24T08:19:34;10.50;;;4.50;;
55732;SDS011;41637;52.364;9.910;2023-04-24T08:22:01;7.30;;;4.40;;
55732;SDS011;41637;52.364;9.910;2023-04-24T08:24:28;8.00;;;4.70;;
55732;SDS011;41637;52.364;9.910;2023-04-24T08:26:55;5.60;;;4.10;;
55732;SDS011;41637;52.364;9.910;2023-04-24T08:29:24;5.40;;;3.80;;
55732;SDS011;41637;52.364;9.910;2023-04-24T08:31:50;5.20;;;4.00;;
55732;SDS011;41637;52.364;9.910;2023-04-24T08:34:17;9.00;;;6.10;;
55732;SDS011;41637;52.364;9.910;2023-04-24T08:36:44;5.50;;;3.70;;
55732;SDS011;41637;52.364;9.910;2023-04-24T08:39:12;4.40;;;3.70;;
55732;SDS011;41637;52.364;9.910;2023-04-24T08:41:41;4.60;;;3.40;;
55732;SDS011;41637;52.364;9.910;2023-04-24T08:44:12;4.80;;;3.90;;
55732;SDS011;41637;52.364;9.910;2023-04-24T08:46:42;5.80;;;4.30;;
55732;SDS011;41637;52.364;9.910;2023-04-24T08:49:12;5.00;;;4.00;;
55732;SDS011;41637;52.364;9.910;2023-04-24T08:51:39;8.90;;;5.80;;
55732;SDS011;41637;52.364;9.910;2023-04-24T08:54:06;8.10;;;5.90;;
55732;SDS011;41637;52.364;9.910;2023-04-24T08:56:33;6.70;;;4.30;;
55732;SDS011;41637;52.364;9.910;2023-04-24T08:59:04;5.90;;;3.70;;
55732;SDS011;41637;52.364;9.910;2023-04-24T09:01:31;8.10;;;5.10;;
55732;SDS011;41637;52.364;9.910;2023-04-24T09:04:02;4.70;;;3.50;;
55732;SDS011;41637;52.364;9.910;2023-04-24T09:06:30;4.50;;;3.40;;
55732;SDS011;41637;52.364;9.910;2023-04-24T09:09:01;4.80;;;3.70;;
55732;SDS011;41637;52.364;9.910;2023-04-24T09:11:30;5.80;;;4.10;;
55732;SDS011;41637;52.364;9.910;2023-04-24T09:13:58;5.30;;;4.10;;
55732;SDS011;41637;52.364;9.910;2023-04-24T09:16:25;5.80;;;4.10;;
55732;SDS011;41637;52.364;9.910;2023-04-24T09:18:53;5.50;;;3.50;;
55732;SDS011;41637;52.364;9.910;2023-04-24T09:21:20;5.70;;;4.40;;
55732;SDS011;41637;52.364;9.910;2023-04-24T09:23:57;5.70;;;4.10;;
55732;SDS011;41637;52.364;9.910;2023-04-24T09:26:29;4.60;;;3.20;;
55732;SDS011;41637;52.364;9.910;2023-04-24T09:28:58;5.00;;;3.00;;
55732;SDS011;41637;52.364;9.910;2023-04-24T09:31:26;7.90;;;5.00;;
55732;SDS011;41637;52.364;9.910;2023-04-24T09:33:54;5.20;;;3.40;;
55732;SDS011;41637;52.364;9.910;2023-04-24T09:36:32;7.90;;;4.10;;
55732;SDS011;41637;52.364;9.910;2023-04-24T09:39:03;6.10;;;4.60;;
55732;SDS011;41637;52.364;9.910;2023-04-24T09:41:31;3.70;;;2.60;;
55732;SDS011;41637;52.364;9.910;2023-04-24T09:44:15;3.30;;;2.00;;
55732;SDS011;41637;52.364;9.910;2023-04-24T09:46:44;3.90;;;2.50;;
55732;SDS011;41637;52.364;9.910;2023-04-24T09:49:13;2.40;;;1.90;;
55732;SDS011;41637;52.364;9.910;2023-04-24T09:51:42;3.00;;;2.30;;
55732;SDS011;41637;52.364;9.910;2023-04-24T09:54:15;2.80;;;2.30;;
55732;SDS011;41637;52.364;9.910;2023-04-24T09:56:45;4.40;;;3.00;;
55732;SDS011;41637;52.364;9.910;2023-04-24T09:59:13;4.70;;;3.40;;
55732;SDS011;41637;52.364;9.910;2023-04-24T10:01:40;6.10;;;4.50;;
55732;SDS011;41637;52.364;9.910;2023-04-24T10:04:14;8.30;;;5.80;;
55732;SDS011;41637;52.364;9.910;2023-04-24T10:06:43;8.80;;;5.30;;
55732;SDS011;41637;52.364;9.910;2023-04-24T10:09:10;5.40;;;3.60;;
55732;SDS011;41637;52.364;9.910;2023-04-24T10:11:42;4.80;;;3.50;;
55732;SDS011;41637;52.364;9.910;2023-04-24T10:14:16;10.00;;;5.30;;
55732;SDS011;41637;52.364;9.910;2023-04-24T10:16:44;4.70;;;3.10;;
55732;SDS011;41637;52.364;9.910;2023-04-24T10:19:13;5.30;;;2.30;;
55732;SDS011;41637;52.364;9.910;2023-04-24T10:21:41;5.70;;;3.30;;
55732;SDS011;41637;52.364;9.910;2023-04-24T10:24:16;3.80;;;2.30;;
55732;SDS011;41637;52.364;9.910;2023-04-24T10:26:45;6.40;;;4.70;;
55732;SDS011;41637;52.364;9.910;2023-04-24T10:29:12;4.10;;;2.60;;
55732;SDS011;41637;52.364;9.910;2023-04-24T10:31:41;4.00;;;2.30;;
55732;SDS011;41637;52.364;9.910;2023-04-24T10:34:12;4.10;;;2.60;;
55732;SDS011;41637;52.364;9.910;2023-04-24T10:36:45;2.50;;;1.80;;
55732;SDS011;41637;52.364;9.910;2023-04-24T10:39:16;2.60;;;1.90;;
55732;SDS011;41637;52.364;9.910;2023-04-24T10:41:43;4.80;;;3.40;;
55732;SDS011;41637;52.364;9.910;2023-04-24T10:44:12;3.30;;;2.00;;
55732;SDS011;41637;52.364;9.910;2023-04-24T10:46:42;3.10;;;1.70;;
55732;SDS011;41637;52.364;9.910;2023-04-24T10:49:10;2.80;;;1.70;;
55732;SDS011;41637;52.364;9.910;2023-04-24T10:51:50;8.30;;;5.30;;
55732;SDS011;41637;52.364;9.910;2023-04-24T10:59:45;3.20;;;1.50;;
55732;SDS011;41637;52.364;9.910;2023-04-24T11:02:17;2.50;;;1.60;;
55732;SDS011;41637;52.364;9.910;2023-04-24T11:04:44;2.60;;;1.60;;
55732;SDS011;41637;52.364;9.910;2023-04-24T11:07:11;3.00;;;1.70;;
55732;SDS011;41637;52.364;9.910;2023-04-24T11:09:38;3.50;;;1.50;;
55732;SDS011;41637;52.364;9.910;2023-04-24T11:12:09;2.20;;;1.40;;
55732;SDS011;41637;52.364;9.910;2023-04-24T11:17:34;2.90;;;1.30;;
55732;SDS011;41637;52.364;9.910;2023-04-24T11:20:04;3.30;;;1.50;;
55732;SDS011;41637;52.364;9.910;2023-04-24T11:22:53;2.50;;;1.50;;
55732;SDS011;41637;52.364;9.910;2023-04-24T11:25:21;4.00;;;1.60;;
55732;SDS011;41637;52.364;9.910;2023-04-24T11:27:49;2.70;;;1.40;;
55732;SDS011;41637;52.364;9.910;2023-04-24T11:30:19;3.10;;;1.60;;
55732;SDS011;41637;52.364;9.910;2023-04-24T11:32:47;2.30;;;1.40;;
55732;SDS011;41637;52.364;9.910;2023-04-24T11:35:19;2.40;;;1.50;;
55732;SDS011;41637;52.364;9.910;2023-04-24T11:37:48;2.60;;;1.30;;
55732;SDS011;41637;52.364;9.910;2023-04-24T11:40:36;1.80;;;1.10;;
55732;SDS011;41637;52.364;9.910;2023-04-24T11:43:04;2.80;;;1.20;;
55732;SDS011;41637;52.364;9.910;2023-04-24T11:45:33;2.80;;;1.30;;
55732;SDS011;41637;52.364;9.910;2023-04-24T11:48:00;1.90;;;1.10;;
55732;SDS011;41637;52.364;9.910;2023-04-24T11:50:29;2.30;;;1.30;;
55732;SDS011;41637;52.364;9.910;2023-04-24T11:52:56;3.50;;;1.30;;
55732;SDS011;41637;52.364;9.910;2023-04-24T11:55:24;4.20;;;1.50;;
55732;SDS011;41637;52.364;9.910;2023-04-24T11:57:53;2.90;;;1.40;;
55732;SDS011;41637;52.364;9.910;2023-04-24T12:00:26;3.10;;;1.20;;
55732;SDS011;41637;52.364;9.910;2023-04-24T12:03:06;1.60;;;0.80;;
55732;SDS011;41637;52.364;9.910;2023-04-24T12:05:34;1.80;;;1.00;;
55732;SDS011;41637;52.364;9.910;2023-04-24T12:08:01;1.60;;;0.70;;
55732;SDS011;41637;52.364;9.910;2023-04-24T12:10:29;1.30;;;0.70;;
55732;SDS011;41637;52.364;9.910;2023-04-24T12:12:57;2.30;;;0.60;;
55732;SDS011;41637;52.364;9.910;2023-04-24T12:15:26;1.70;;;0.60;;
55732;SDS011;41637;52.364;9.910;2023-04-24T12:17:53;1.70;;;0.40;;
55732;SDS011;41637;52.364;9.910;2023-04-24T12:20:28;1.60;;;0.60;;
55732;SDS011;41637;52.364;9.910;2023-04-24T12:22:58;1.20;;;0.60;;
55732;SDS011;41637;52.364;9.910;2023-04-24T12:25:27;1.30;;;0.70;;
55732;SDS011;41637;52.364;9.910;2023-04-24T12:28:16;2.70;;;0.60;;
55732;SDS011;41637;52.364;9.910;2023-04-24T12:30:47;1.50;;;0.40;;
55732;SDS011;41637;52.364;9.910;2023-04-24T12:33:17;1.70;;;0.70;;
55732;SDS011;41637;52.364;9.910;2023-04-24T12:35:45;3.40;;;0.90;;
55732;SDS011;41637;52.364;9.910;2023-04-24T12:38:13;3.80;;;0.80;;
55732;SDS011;41637;52.364;9.910;2023-04-24T12:40:42;3.50;;;0.60;;
55732;SDS011;41637;52.364;9.910;2023-04-24T12:43:19;3.30;;;0.90;;
55732;SDS011;41637;52.364;9.910;2023-04-24T12:45:49;1.40;;;0.60;;
55732;SDS011;41637;52.364;9.910;2023-04-24T12:48:16;1.30;;;0.90;;
55732;SDS011;41637;52.364;9.910;2023-04-24T12:50:43;2.60;;;0.60;;
55732;SDS011;41637;52.364;9.910;2023-04-24T12:53:11;2.60;;;0.70;;
55732;SDS011;41637;52.364;9.910;2023-04-24T12:55:38;1.60;;;0.70;;
55732;SDS011;41637;52.364;9.910;2023-04-24T12:58:04;3.20;;;0.60;;
55732;SDS011;41637;52.364;9.910;2023-04-24T13:00:32;1.30;;;0.40;;
55732;SDS011;41637;52.364;9.910;2023-04-24T13:02:59;1.00;;;0.50;;
55732;SDS011;41637;52.364;9.910;2023-04-24T13:05:26;0.90;;;0.50;;
55732;SDS011;41637;52.364;9.910;2023-04-24T13:07:52;1.40;;;0.50;;
55732;SDS011;41637;52.364;9.910;2023-04-24T13:10:19;2.00;;;0.90;;
55732;SDS011;41637;52.364;9.910;2023-04-24T13:12:46;1.30;;;0.80;;
55732;SDS011;41637;52.364;9.910;2023-04-24T13:15:13;1.10;;;0.70;;
55732;SDS011;41637;52.364;9.910;2023-04-24T13:17:39;1.50;;;0.70;;
55732;SDS011;41637;52.364;9.910;2023-04-24T13:20:06;1.00;;;0.60;;
55732;SDS011;41637;52.364;9.910;2023-04-24T13:22:33;1.70;;;0.70;;
55732;SDS011;41637;52.364;9.910;2023-04-24T13:25:00;1.50;;;0.80;;
55732;SDS011;41637;52.364;9.910;2023-04-24T13:27:27;1.70;;;1.00;;
55732;SDS011;41637;52.364;9.910;2023-04-24T13:29:54;1.80;;;0.60;;
55732;SDS011;41637;52.364;9.910;2023-04-24T13:32:20;0.90;;;0.60;;
55732;SDS011;41637;52.364;9.910;2023-04-24T13:34:47;1.60;;;0.60;;
55732;SDS011;41637;52.364;9.910;2023-04-24T13:37:14;0.70;;;0.50;;
55732;SDS011;41637;52.364;9.910;2023-04-24T13:39:40;2.10;;;0.80;;
55732;SDS011;41637;52.364;9.910;2023-04-24T13:42:10;1.40;;;0.80;;
55732;SDS011;41637;52.364;9.910;2023-04-24T13:44:36;1.40;;;0.70;;
55732;SDS011;41637;52.364;9.910;2023-04-24T13:47:03;1.50;;;0.70;;
55732;SDS011;41637;52.364;9.910;2023-04-24T13:49:30;0.80;;;0.50;;
55732;SDS011;41637;52.364;9.910;2023-04-24T13:51:57;0.90;;;0.40;;
55732;SDS011;41637;52.364;9.910;2023-04-24T13:54:23;1.50;;;0.50;;
55732;SDS011;41637;52.364;9.910;2023-04-24T13:56:52;1.40;;;0.50;;
55732;SDS011;41637;52.364;9.910;2023-04-24T13:59:21;2.60;;;0.40;;
55732;SDS011;41637;52.364;9.910;2023-04-24T14:01:48;0.70;;;0.30;;
55732;SDS011;41637;52.364;9.910;2023-04-24T14:04:15;0.70;;;0.40;;
55732;SDS011;41637;52.364;9.910;2023-04-24T14:06:42;1.10;;;0.30;;
55732;SDS011;41637;52.364;9.910;2023-04-24T14:09:09;0.30;;;0.10;;
55732;SDS011;41637;52.364;9.910;2023-04-24T14:11:36;2.00;;;0.60;;
55732;SDS011;41637;52.364;9.910;2023-04-24T14:14:03;1.60;;;0.30;;
55732;SDS011;41637;52.364;9.910;2023-04-24T14:16:30;0.70;;;0.30;;
55732;SDS011;41637;52.364;9.910;2023-04-24T14:18:57;1.40;;;0.20;;
55732;SDS011;41637;52.364;9.910;2023-04-24T14:21:24;0.40;;;0.30;;
55732;SDS011;41637;52.364;9.910;2023-04-24T14:23:51;1.00;;;0.30;;
55732;SDS011;41637;52.364;9.910;2023-04-24T14:26:17;1.30;;;0.40;;
55732;SDS011;41637;52.364;9.910;2023-04-24T14:28:44;1.20;;;0.50;;
55732;SDS011;41637;52.364;9.910;2023-04-24T14:31:11;0.80;;;0.30;;
55732;SDS011;41637;52.364;9.910;2023-04-24T14:33:38;1.60;;;0.60;;
55732;SDS011;41637;52.364;9.910;2023-04-24T14:36:04;1.10;;;0.60;;
55732;SDS011;41637;52.364;9.910;2023-04-24T14:38:32;1.70;;;0.80;;
55732;SDS011;41637;52.364;9.910;2023-04-24T14:40:58;2.30;;;1.00;;
55732;SDS011;41637;52.364;9.910;2023-04-24T14:43:28;3.60;;;1.20;;
55732;SDS011;41637;52.364;9.910;2023-04-24T14:45:56;2.30;;;1.40;;
55732;SDS011;41637;52.364;9.910;2023-04-24T14:48:23;2.10;;;1.40;;
55732;SDS011;41637;52.364;9.910;2023-04-24T14:50:50;2.50;;;1.40;;
55732;SDS011;41637;52.364;9.910;2023-04-24T14:53:17;2.90;;;1.50;;
55732;SDS011;41637;52.364;9.910;2023-04-24T14:55:44;2.50;;;1.60;;
55732;SDS011;41637;52.364;9.910;2023-04-24T14:58:11;2.10;;;1.40;;
55732;SDS011;41637;52.364;9.910;2023-04-24T15:00:38;3.10;;;1.50;;